Time;durP1;ratioP1;P1;durP2;ratioP2;P2;SDS_P1;SDS_P2;PMS_P1;PMS_P2;Temp;Humidity;BMP_temperature;BMP_pressure;BME280_temperature;BME280_humidity;BME280_pressure;Samples;Min_cycle;Max_cycle;Signal;HPM_P1;HPM_P2
2022/02/02 00:03:10;;;;;;;4.17;3.87;;;8.70;99.90;;;;;;10507381;28;20628;-79
2022/02/02 00:08:17;;;;;;;4.00;3.70;;;8.70;99.90;;;;;;10545329;28;20216;-79
2022/02/02 00:13:34;;;;;;;4.07;3.77;;;8.70;99.90;;;;;;10536348;28;20227;-78
2022/02/02 00:18:49;;;;;;;4.07;3.77;;;8.70;99.90;;;;;;10524477;28;20226;-79
2022/02/02 00:23:56;;;;;;;5.50;4.03;;;8.60;99.90;;;;;;10538150;28;20292;-79
2022/02/02 00:29:04;;;;;;;4.00;3.30;;;8.70;99.90;;;;;;10546060;28;20680;-79
2022/02/02 00:34:12;;;;;;;2.70;2.50;;;8.70;99.90;;;;;;10547538;28;20274;-79
2022/02/02 00:39:14;;;;;;;4.23;2.40;;;8.70;99.90;;;;;;10530500;28;20312;-78
2022/02/02 00:44:18;;;;;;;2.97;2.70;;;8.70;99.90;;;;;;10519460;28;20196;-79
2022/02/02 00:49:22;;;;;;;2.50;2.30;;;8.70;99.90;;;;;;10516391;28;20208;-79
2022/02/02 00:54:26;;;;;;;4.80;2.33;;;8.70;99.90;;;;;;10513468;28;20230;-77
2022/02/02 00:59:28;;;;;;;2.30;2.20;;;8.70;99.90;;;;;;10511260;28;20228;-78
2022/02/02 01:04:32;;;;;;;2.93;2.57;;;8.80;99.90;;;;;;10514358;28;20579;-78
2022/02/02 01:09:36;;;;;;;2.87;2.57;;;8.80;99.90;;;;;;10532888;28;20599;-79
2022/02/02 01:20:03;;;;;;;3.10;2.47;;;8.80;99.90;;;;;;10517908;28;20582;-79
2022/02/02 01:30:25;;;;;;;6.03;3.20;;;8.90;99.90;;;;;;10516477;28;20215;-78
2022/02/02 01:35:29;;;;;;;3.03;2.60;;;8.90;99.90;;;;;;10520410;28;20680;-79
2022/02/02 01:40:35;;;;;;;3.60;2.70;;;8.90;99.90;;;;;;10505744;28;20225;-77
2022/02/02 01:45:41;;;;;;;3.50;3.10;;;9.00;99.90;;;;;;10531787;28;20196;-78
2022/02/02 01:50:56;;;;;;;2.70;2.33;;;9.10;99.90;;;;;;10512611;28;20223;-77
2022/02/02 01:56:00;;;;;;;3.53;2.40;;;9.00;99.90;;;;;;10513745;28;20257;-78
2022/02/02 02:01:04;;;;;;;3.50;2.40;;;9.10;99.90;;;;;;10534335;28;21183;-78
2022/02/02 02:06:08;;;;;;;3.83;2.53;;;9.10;99.90;;;;;;10525563;28;20208;-78
2022/02/02 02:11:16;;;;;;;4.70;3.10;;;9.20;99.90;;;;;;10523421;28;20200;-77
2022/02/02 02:16:18;;;;;;;3.83;3.43;;;9.20;99.90;;;;;;10538145;28;20196;-78
2022/02/02 02:21:22;;;;;;;3.60;3.30;;;9.20;99.90;;;;;;10545741;28;20253;-77
2022/02/02 02:26:28;;;;;;;5.60;4.10;;;9.10;99.90;;;;;;10543879;28;20727;-79
2022/02/02 02:31:38;;;;;;;6.97;4.40;;;9.20;99.90;;;;;;10544948;28;20652;-79
2022/02/02 02:58:21;;;;;;;6.53;4.67;;;9.30;99.90;;;;;;10530451;28;20605;-79
2022/02/02 03:30:13;;;;;;;7.47;4.50;;;9.10;99.90;;;;;;10547640;28;20231;-78
2022/02/02 03:35:27;;;;;;;7.03;4.23;;;9.10;99.90;;;;;;10550142;28;20895;-80
2022/02/02 03:51:30;;;;;;;6.37;3.97;;;9.30;99.90;;;;;;10537492;28;20687;-79
2022/02/02 03:56:38;;;;;;;7.93;3.30;;;9.30;99.90;;;;;;10550337;28;20219;-79
2022/02/02 04:07:06;;;;;;;6.67;4.30;;;9.30;99.90;;;;;;10552241;28;20215;-79
2022/02/02 04:12:17;;;;;;;8.53;3.73;;;9.20;99.90;;;;;;10555809;28;20192;-79
2022/02/02 04:17:47;;;;;;;6.80;3.83;;;9.30;99.90;;;;;;10545523;28;20331;-77
2022/02/02 04:39:14;;;;;;;14.17;4.00;;;9.10;99.90;;;;;;10552299;28;20223;-79
2022/02/02 04:55:01;;;;;;;8.50;4.23;;;9.10;99.90;;;;;;10531796;28;20244;-78
2022/02/02 05:00:34;;;;;;;7.20;3.80;;;9.10;99.90;;;;;;10530977;28;20224;-78
2022/02/02 05:05:44;;;;;;;10.20;4.20;;;9.20;99.90;;;;;;10535330;28;20571;-78
2022/02/02 05:10:59;;;;;;;9.70;3.83;;;9.10;99.90;;;;;;10534952;28;20228;-79
2022/02/02 05:16:19;;;;;;;11.97;3.87;;;9.00;99.90;;;;;;10514826;28;20617;-77
2022/02/02 05:53:24;;;;;;;12.80;4.50;;;9.00;99.90;;;;;;10507816;28;20232;-79
2022/02/02 05:58:28;;;;;;;8.83;3.43;;;9.00;99.90;;;;;;10491603;28;20232;-77
2022/02/02 06:03:47;;;;;;;6.40;4.00;;;8.90;99.90;;;;;;10495027;28;20229;-77
2022/02/02 06:08:52;;;;;;;11.67;3.97;;;8.80;99.90;;;;;;10500743;28;20254;-77
2022/02/02 06:13:57;;;;;;;14.60;4.90;;;8.80;99.90;;;;;;10531977;28;20196;-78
2022/02/02 06:19:01;;;;;;;12.77;4.30;;;8.80;99.90;;;;;;10504344;28;20273;-77
2022/02/02 06:24:17;;;;;;;10.67;3.90;;;8.70;99.90;;;;;;10523342;28;20741;-78
2022/02/02 06:29:19;;;;;;;11.77;4.67;;;8.80;99.90;;;;;;10523425;28;20216;-77
2022/02/02 06:34:25;;;;;;;12.00;4.23;;;8.80;99.90;;;;;;10534895;28;20204;-78
2022/02/02 06:39:29;;;;;;;9.93;4.37;;;8.90;99.90;;;;;;10534618;28;20679;-76
2022/02/02 06:44:31;;;;;;;13.37;4.23;;;8.90;99.90;;;;;;10527692;28;20192;-77
2022/02/02 06:49:34;;;;;;;9.93;4.00;;;8.90;99.90;;;;;;10505468;28;20216;-77
2022/02/02 06:54:50;;;;;;;10.53;3.47;;;8.90;99.90;;;;;;10503546;28;20291;-78
2022/02/02 07:00:05;;;;;;;16.00;4.27;;;8.90;99.90;;;;;;10516631;28;20233;-77
2022/02/02 07:05:19;;;;;;;9.57;4.50;;;8.90;99.90;;;;;;10531910;28;20238;-78
2022/02/02 07:10:41;;;;;;;14.53;4.57;;;8.90;99.90;;;;;;10513729;28;20219;-77
2022/02/02 07:16:00;;;;;;;13.60;4.80;;;8.90;99.90;;;;;;10498986;28;20203;-77
2022/02/02 07:21:17;;;;;;;11.67;4.50;;;9.00;99.90;;;;;;10510550;28;20684;-77
2022/02/02 07:26:45;;;;;;;10.27;4.77;;;8.90;99.90;;;;;;10489389;28;20721;-77
2022/02/02 07:31:58;;;;;;;6.23;4.07;;;9.00;99.90;;;;;;10500996;28;20192;-77
2022/02/02 07:37:03;;;;;;;7.03;3.97;;;9.00;99.90;;;;;;10511501;28;20221;-77
2022/02/02 07:42:10;;;;;;;8.90;3.97;;;9.00;99.90;;;;;;10504024;28;20327;-78
2022/02/02 07:47:16;;;;;;;7.90;3.93;;;9.10;99.90;;;;;;10498252;28;20273;-77
2022/02/02 07:52:20;;;;;;;13.70;5.10;;;9.10;99.90;;;;;;10492391;28;20197;-77
2022/02/02 07:57:28;;;;;;;11.73;5.00;;;9.20;99.90;;;;;;10507756;28;20583;-77
2022/02/02 08:02:43;;;;;;;10.27;5.20;;;9.10;99.90;;;;;;10491069;28;20214;-78
2022/02/02 08:07:54;;;;;;;12.10;4.27;;;9.00;99.90;;;;;;10520490;28;20227;-79
2022/02/02 08:13:01;;;;;;;7.57;3.70;;;9.00;99.90;;;;;;10540421;28;20200;-77
2022/02/02 08:18:04;;;;;;;8.93;5.00;;;8.90;99.90;;;;;;10537843;28;20700;-78
2022/02/02 08:23:06;;;;;;;15.90;4.50;;;9.00;99.90;;;;;;10525369;28;20212;-77
2022/02/02 08:28:10;;;;;;;12.30;5.10;;;9.00;99.90;;;;;;10523656;28;20286;-78
2022/02/02 08:33:18;;;;;;;10.17;4.50;;;9.00;99.90;;;;;;10509796;28;20235;-79
2022/02/02 08:38:34;;;;;;;12.03;4.73;;;9.10;99.90;;;;;;10530785;28;20231;-77
2022/02/02 08:43:41;;;;;;;11.63;4.90;;;9.00;99.90;;;;;;10518341;28;20211;-78
2022/02/02 08:48:46;;;;;;;11.00;5.40;;;8.80;99.90;;;;;;10521468;28;20295;-78
2022/02/02 08:54:00;;;;;;;10.47;5.60;;;8.60;99.90;;;;;;10506805;28;20203;-79
2022/02/02 08:59:09;;;;;;;12.67;6.03;;;8.50;99.90;;;;;;10551353;28;20235;-79
2022/02/02 09:09:49;;;;;;;9.90;5.60;;;8.60;99.90;;;;;;10551041;28;20220;-79
2022/02/02 09:20:23;;;;;;;10.90;5.60;;;8.60;99.90;;;;;;10547493;28;20755;-79
2022/02/02 09:25:28;;;;;;;17.43;6.40;;;8.70;99.90;;;;;;10544974;28;20235;-77
2022/02/02 09:35:52;;;;;;;14.93;5.60;;;8.80;99.90;;;;;;10523184;28;20196;-79
2022/02/02 09:46:17;;;;;;;13.97;5.20;;;8.90;99.90;;;;;;10531861;28;20753;-79
2022/02/02 09:51:25;;;;;;;11.20;4.77;;;8.90;99.90;;;;;;10546767;28;20193;-77
2022/02/02 09:56:47;;;;;;;12.30;5.03;;;9.00;99.90;;;;;;10544092;28;20671;-79
2022/02/02 10:02:27;;;;;;;14.70;5.70;;;9.00;99.90;;;;;;10529222;28;20264;-78
2022/02/02 10:07:49;;;;;;;16.37;6.70;;;9.00;99.90;;;;;;10540426;28;20584;-80
2022/02/02 10:13:16;;;;;;;9.10;5.50;;;9.10;99.90;;;;;;10542444;28;20207;-80
2022/02/02 10:18:21;;;;;;;9.13;5.10;;;9.30;99.90;;;;;;10523126;28;20219;-79
2022/02/02 10:23:25;;;;;;;11.20;4.80;;;9.60;99.90;;;;;;10528392;28;20246;-78
2022/02/02 10:28:31;;;;;;;8.30;4.30;;;9.70;99.90;;;;;;10540365;28;20230;-79
2022/02/02 10:33:36;;;;;;;8.13;4.20;;;9.80;99.90;;;;;;10528997;28;20694;-79
2022/02/02 10:38:47;;;;;;;9.30;3.87;;;9.80;99.90;;;;;;10528975;28;20228;-79
2022/02/02 10:43:54;;;;;;;10.97;4.80;;;9.90;99.90;;;;;;10512969;28;20219;-79
2022/02/02 10:49:11;;;;;;;16.23;5.03;;;9.90;99.90;;;;;;10491071;28;20247;-79
2022/02/02 10:54:21;;;;;;;14.03;5.53;;;10.00;99.90;;;;;;10503640;28;20210;-79
2022/02/02 11:10:00;;;;;;;13.17;5.00;;;10.20;99.90;;;;;;10530673;28;20238;-78
2022/02/02 11:15:28;;;;;;;9.77;4.53;;;10.30;99.90;;;;;;10522262;28;20282;-79
2022/02/02 11:20:32;;;;;;;11.97;4.70;;;10.40;99.90;;;;;;10518047;28;20212;-78
2022/02/02 11:25:36;;;;;;;10.37;4.43;;;10.30;99.90;;;;;;10503672;28;20195;-79
2022/02/02 11:30:42;;;;;;;11.60;4.23;;;10.40;99.90;;;;;;10501451;28;20697;-78
2022/02/02 11:35:49;;;;;;;15.40;5.17;;;10.40;99.90;;;;;;10522263;28;20196;-78
2022/02/02 11:41:42;;;;;;;10.33;4.07;;;10.60;99.90;;;;;;10502867;28;20220;-78
2022/02/02 11:46:57;;;;;;;12.30;4.27;;;10.60;99.90;;;;;;10518535;28;20263;-78
2022/02/02 11:52:03;;;;;;;8.53;4.07;;;10.70;99.90;;;;;;10524106;28;20192;-78
2022/02/02 11:57:17;;;;;;;7.47;4.07;;;10.60;99.90;;;;;;10505537;28;20228;-78
2022/02/02 12:02:34;;;;;;;11.37;4.60;;;10.50;99.90;;;;;;10527992;28;20216;-80
2022/02/02 12:08:16;;;;;;;11.57;4.67;;;10.50;99.90;;;;;;10524753;28;20215;-79
2022/02/02 12:19:13;;;;;;;15.40;4.50;;;10.50;99.90;;;;;;10515950;28;20222;-79
2022/02/02 12:56:30;;;;;;;12.63;4.40;;;10.60;99.90;;;;;;10528030;28;20210;-80
2022/02/02 13:01:32;;;;;;;11.47;5.30;;;10.40;99.90;;;;;;10527370;28;20790;-79
2022/02/02 13:06:40;;;;;;;8.43;4.03;;;10.40;99.90;;;;;;10521169;28;20700;-79
2022/02/02 13:11:44;;;;;;;6.70;3.73;;;10.30;99.90;;;;;;10525775;28;20250;-79
2022/02/02 13:16:47;;;;;;;7.63;3.70;;;10.40;99.90;;;;;;10531925;28;20251;-78
2022/02/02 13:22:03;;;;;;;4.60;3.33;;;10.40;99.90;;;;;;10537735;28;20273;-79
2022/02/02 13:27:15;;;;;;;5.80;2.97;;;10.50;99.90;;;;;;10507280;28;20699;-79
2022/02/02 13:32:23;;;;;;;6.57;3.73;;;10.40;99.90;;;;;;10521763;28;20210;-80
2022/02/02 13:48:43;;;;;;;5.97;2.83;;;10.40;99.90;;;;;;10543328;28;20223;-80
2022/02/02 13:54:01;;;;;;;3.60;2.63;;;10.30;99.90;;;;;;10539857;28;20655;-80
2022/02/02 13:59:22;;;;;;;6.03;2.53;;;10.30;99.90;;;;;;10555943;22;20239;-81
2022/02/02 14:04:37;;;;;;;4.83;2.93;;;10.30;99.90;;;;;;10497963;28;20212;-80
2022/02/02 14:09:58;;;;;;;5.50;3.10;;;10.40;99.90;;;;;;10476097;28;20646;-82
2022/02/02 14:26:07;;;;;;;5.50;3.20;;;10.40;99.90;;;;;;10492649;28;20204;-83
2022/02/02 14:31:16;;;;;;;9.13;4.30;;;10.20;99.90;;;;;;10501419;28;20220;-83
2022/02/02 14:36:29;;;;;;;4.03;3.43;;;10.10;99.90;;;;;;10511192;28;20205;-83
2022/02/02 14:41:37;;;;;;;11.83;3.97;;;10.00;99.90;;;;;;10479526;28;20618;-83
2022/02/02 14:46:46;;;;;;;8.77;4.37;;;9.90;99.90;;;;;;10496918;28;20207;-82
2022/02/02 14:51:58;;;;;;;6.97;4.20;;;9.80;99.90;;;;;;10499132;28;20212;-83
2022/02/02 15:24:17;;;;;;;10.90;4.70;;;9.50;99.90;;;;;;10505061;28;20335;-77
2022/02/02 15:29:27;;;;;;;8.67;4.30;;;9.40;99.90;;;;;;10521680;28;20220;-80
2022/02/02 15:34:34;;;;;;;5.63;3.00;;;9.40;99.90;;;;;;10538693;28;20740;-79
2022/02/02 15:39:40;;;;;;;8.10;3.93;;;9.30;99.90;;;;;;10481277;28;20224;-77
2022/02/02 15:56:12;;;;;;;7.10;3.43;;;9.20;99.90;;;;;;10482250;28;20192;-78
2022/02/02 16:06:32;;;;;;;5.10;4.10;;;9.10;99.90;;;;;;10471654;28;20201;-79
2022/02/02 16:11:34;;;;;;;4.97;4.10;;;9.10;99.90;;;;;;10488945;28;20224;-80
2022/02/02 16:16:56;;;;;;;4.93;4.10;;;9.10;99.90;;;;;;10476229;28;20205;-78
2022/02/02 16:33:26;;;;;;;4.87;3.60;;;9.00;99.90;;;;;;10459039;28;20205;-78
2022/02/02 16:38:27;;;;;;;5.47;3.53;;;9.00;99.90;;;;;;10463300;28;20234;-78
2022/02/02 16:43:29;;;;;;;5.53;3.70;;;8.90;99.90;;;;;;10482810;28;20205;-80
2022/02/02 16:48:31;;;;;;;7.17;4.20;;;9.00;99.90;;;;;;10457188;28;20213;-80
2022/02/02 16:53:42;;;;;;;4.87;3.50;;;9.00;99.90;;;;;;10478713;28;20193;-81
2022/02/02 17:30:51;;;;;;;4.17;3.77;;;9.30;99.90;;;;;;10468165;28;20221;-82
2022/02/02 17:36:08;;;;;;;3.87;3.47;;;9.20;99.90;;;;;;10486351;28;20299;-81
2022/02/02 17:41:22;;;;;;;4.67;4.20;;;9.20;99.90;;;;;;10481361;28;20263;-80
2022/02/02 18:18:56;;;;;;;8.90;4.30;;;9.10;99.90;;;;;;10475814;28;20223;-80
2022/02/02 18:24:05;;;;;;;4.03;3.73;;;9.10;99.90;;;;;;10489506;28;20208;-80
2022/02/02 18:29:25;;;;;;;5.87;3.93;;;9.10;99.90;;;;;;10475602;28;20223;-81
2022/02/02 18:34:39;;;;;;;3.93;3.63;;;9.10;99.90;;;;;;10476960;28;20234;-80
2022/02/02 18:45:31;;;;;;;4.97;4.43;;;9.10;99.90;;;;;;10466340;28;20247;-83
2022/02/02 18:50:55;;;;;;;5.40;4.90;;;9.10;99.90;;;;;;10490492;28;20258;-82
2022/02/02 18:56:16;;;;;;;5.27;4.87;;;9.10;99.90;;;;;;10501256;28;20577;-81
2022/02/02 19:01:30;;;;;;;5.70;5.10;;;9.10;99.90;;;;;;10502044;28;20244;-83
2022/02/02 19:06:52;;;;;;;8.70;6.10;;;9.00;99.90;;;;;;10481041;28;20200;-83
2022/02/02 20:05:38;;;;;;;5.50;3.50;;;8.10;99.90;;;;;;10499040;28;20224;-79
2022/02/02 20:10:48;;;;;;;5.17;4.67;;;8.00;99.90;;;;;;10486710;28;20584;-79
2022/02/02 20:15:50;;;;;;;3.90;3.60;;;7.80;99.90;;;;;;10486728;28;20200;-82
2022/02/02 20:20:55;;;;;;;4.80;4.33;;;7.70;99.90;;;;;;10486618;28;20231;-82
2022/02/02 20:25:57;;;;;;;5.30;4.90;;;7.60;99.90;;;;;;10498325;28;20235;-82
2022/02/02 20:30:59;;;;;;;5.03;4.63;;;7.60;99.90;;;;;;10499515;28;20216;-82
2022/02/02 20:36:03;;;;;;;5.30;4.90;;;7.50;99.90;;;;;;10500000;28;20283;-82
2022/02/02 20:41:06;;;;;;;6.80;6.30;;;7.50;99.90;;;;;;10502139;28;20251;-81
2022/02/02 21:00:13;;;;;;;7.40;6.80;;;7.50;99.90;;;;;;10504043;28;20221;-82
2022/02/02 21:03:32;;;;;;;3.70;3.40;;;7.50;99.90;;;;;;10501790;28;20224;-80
2022/02/02 21:08:58;;;;;;;3.70;3.40;;;7.60;99.90;;;;;;10485733;28;20216;-80
2022/02/02 21:14:00;;;;;;;4.10;3.80;;;7.70;99.90;;;;;;10498136;28;20208;-78
2022/02/02 21:19:07;;;;;;;4.73;4.43;;;7.70;99.90;;;;;;10482944;28;20278;-79
2022/02/02 21:24:44;;;;;;;7.70;7.00;;;7.90;99.90;;;;;;10499456;28;20692;-79
2022/02/02 21:29:46;;;;;;;4.77;4.40;;;7.90;99.90;;;;;;10490588;28;20225;-79
2022/02/02 21:34:51;;;;;;;5.20;4.70;;;8.00;99.90;;;;;;10458306;28;20228;-80
2022/02/02 21:40:05;;;;;;;4.70;4.30;;;8.00;99.90;;;;;;10478708;28;20231;-79
2022/02/02 21:45:08;;;;;;;6.00;4.93;;;8.10;99.90;;;;;;10489209;28;20223;-79
2022/02/02 21:50:15;;;;;;;4.50;4.10;;;8.20;99.90;;;;;;10461660;28;20303;-79
2022/02/02 21:55:18;;;;;;;3.80;3.50;;;8.20;99.90;;;;;;10474730;28;20254;-79
2022/02/02 22:00:20;;;;;;;3.60;3.30;;;8.30;99.90;;;;;;10490219;28;20242;-79
2022/02/02 22:05:23;;;;;;;3.70;3.50;;;8.40;99.90;;;;;;10491436;28;20791;-79
2022/02/02 22:10:27;;;;;;;3.30;3.10;;;8.40;99.90;;;;;;10466061;28;20224;-79
2022/02/02 22:15:38;;;;;;;3.50;3.20;;;8.40;99.90;;;;;;10497367;28;20189;-79
2022/02/02 22:20:40;;;;;;;3.70;3.40;;;8.40;99.90;;;;;;10496867;28;20227;-79
2022/02/02 22:25:43;;;;;;;4.23;3.83;;;8.50;99.90;;;;;;10496568;28;20312;-81
2022/02/02 22:30:45;;;;;;;3.67;3.37;;;8.60;99.90;;;;;;10504965;28;20668;-80
2022/02/02 22:35:48;;;;;;;3.73;3.53;;;8.60;99.90;;;;;;10516730;28;20193;-80
2022/02/02 22:40:52;;;;;;;4.67;4.27;;;8.70;99.90;;;;;;10487831;28;20342;-79
2022/02/02 22:45:54;;;;;;;3.30;3.10;;;8.70;99.90;;;;;;10500749;28;20228;-80
2022/02/02 22:50:56;;;;;;;3.50;3.20;;;8.80;99.90;;;;;;10481452;28;20644;-79
2022/02/02 22:56:00;;;;;;;3.83;3.63;;;8.80;99.90;;;;;;10471003;28;20198;-79
2022/02/02 23:01:02;;;;;;;4.37;4.07;;;8.80;99.90;;;;;;10488413;28;20330;-79
2022/02/02 23:06:04;;;;;;;3.93;3.63;;;8.80;99.90;;;;;;10486902;28;20584;-79
2022/02/02 23:11:08;;;;;;;4.87;4.57;;;8.80;99.90;;;;;;10462988;28;20234;-80
2022/02/02 23:16:17;;;;;;;5.30;4.90;;;8.80;99.90;;;;;;10495369;28;20299;-79
2022/02/02 23:21:24;;;;;;;5.27;4.87;;;8.80;99.90;;;;;;10481987;28;20239;-79
2022/02/02 23:26:28;;;;;;;5.23;4.93;;;8.80;99.90;;;;;;10488841;28;20231;-78
2022/02/02 23:31:30;;;;;;;6.20;5.73;;;8.80;99.90;;;;;;10482823;28;20262;-82
2022/02/02 23:36:32;;;;;;;6.07;5.50;;;8.90;99.90;;;;;;10491415;28;20200;-82
2022/02/02 23:47:06;;;;;;;6.97;6.40;;;8.90;99.90;;;;;;10494153;28;20204;-80
2022/02/02 23:52:09;;;;;;;7.80;7.20;;;8.90;99.90;;;;;;10499724;28;20637;-81
2022/02/02 23:57:22;;;;;;;8.20;7.50;;;8.90;99.90;;;;;;10505348;28;20197;-82
